sensor_id;sensor_type;location;lat;lon;timestamp;P1;durP1;ratioP1;P2;durP2;ratioP2
19235;SDS011;9752;54.270;12.470;2023-05-07T00:03:46;14.17;;;8.67;;
19235;SDS011;9752;54.270;12.470;2023-05-07T00:08:49;11.20;;;8.70;;
19235;SDS011;9752;54.270;12.470;2023-05-07T00:13:51;15.17;;;9.43;;
19235;SDS011;9752;54.270;12.470;2023-05-07T00:18:52;11.43;;;8.40;;
19235;SDS011;9752;54.270;12.470;2023-05-07T00:23:55;15.83;;;9.90;;
19235;SDS011;9752;54.270;12.470;2023-05-07T00:28:57;9.63;;;8.67;;
19235;SDS011;9752;54.270;12.470;2023-05-07T00:33:59;14.10;;;9.67;;
19235;SDS011;9752;54.270;12.470;2023-05-07T00:39:02;16.00;;;9.43;;
19235;SDS011;9752;54.270;12.470;2023-05-07T00:44:04;15.90;;;9.67;;
19235;SDS011;9752;54.270;12.470;2023-05-07T00:49:07;15.40;;;9.13;;
19235;SDS011;9752;54.270;12.470;2023-05-07T00:54:10;15.37;;;9.37;;
19235;SDS011;9752;54.270;12.470;2023-05-07T00:59:12;16.93;;;8.40;;
19235;SDS011;9752;54.270;12.470;2023-05-07T01:04:13;17.67;;;10.53;;
19235;SDS011;9752;54.270;12.470;2023-05-07T01:09:17;14.93;;;8.87;;
19235;SDS011;9752;54.270;12.470;2023-05-07T01:14:21;11.93;;;9.57;;
19235;SDS011;9752;54.270;12.470;2023-05-07T01:19:23;9.30;;;8.23;;
19235;SDS011;9752;54.270;12.470;2023-05-07T01:24:26;19.40;;;9.40;;
19235;SDS011;9752;54.270;12.470;2023-05-07T01:29:28;10.30;;;8.53;;
19235;SDS011;9752;54.270;12.470;2023-05-07T01:34:31;15.97;;;9.57;;
19235;SDS011;9752;54.270;12.470;2023-05-07T01:39:38;15.00;;;9.27;;
19235;SDS011;9752;54.270;12.470;2023-05-07T01:44:41;11.20;;;8.57;;
19235;SDS011;9752;54.270;12.470;2023-05-07T01:49:42;26.27;;;10.27;;
19235;SDS011;9752;54.270;12.470;2023-05-07T01:54:46;14.33;;;9.23;;
19235;SDS011;9752;54.270;12.470;2023-05-07T01:59:48;15.10;;;10.47;;
19235;SDS011;9752;54.270;12.470;2023-05-07T02:04:50;15.50;;;9.77;;
19235;SDS011;9752;54.270;12.470;2023-05-07T02:09:53;18.07;;;9.63;;
19235;SDS011;9752;54.270;12.470;2023-05-07T02:14:56;11.10;;;9.10;;
19235;SDS011;9752;54.270;12.470;2023-05-07T02:19:58;11.87;;;8.97;;
19235;SDS011;9752;54.270;12.470;2023-05-07T02:25:01;15.57;;;9.93;;
19235;SDS011;9752;54.270;12.470;2023-05-07T02:30:03;16.37;;;9.37;;
19235;SDS011;9752;54.270;12.470;2023-05-07T02:35:05;14.73;;;9.80;;
19235;SDS011;9752;54.270;12.470;2023-05-07T02:40:10;13.87;;;8.60;;
19235;SDS011;9752;54.270;12.470;2023-05-07T02:45:13;20.77;;;9.83;;
19235;SDS011;9752;54.270;12.470;2023-05-07T02:50:16;14.67;;;9.73;;
19235;SDS011;9752;54.270;12.470;2023-05-07T02:55:19;20.07;;;10.30;;
19235;SDS011;9752;54.270;12.470;2023-05-07T03:00:21;17.00;;;9.40;;
19235;SDS011;9752;54.270;12.470;2023-05-07T03:05:32;19.23;;;10.70;;
19235;SDS011;9752;54.270;12.470;2023-05-07T03:10:35;17.60;;;10.60;;
19235;SDS011;9752;54.270;12.470;2023-05-07T03:15:37;21.47;;;10.80;;
19235;SDS011;9752;54.270;12.470;2023-05-07T03:20:39;18.23;;;10.90;;
19235;SDS011;9752;54.270;12.470;2023-05-07T03:25:42;20.83;;;11.13;;
19235;SDS011;9752;54.270;12.470;2023-05-07T03:30:44;25.60;;;11.47;;
19235;SDS011;9752;54.270;12.470;2023-05-07T03:35:46;23.57;;;12.27;;
19235;SDS011;9752;54.270;12.470;2023-05-07T03:40:54;22.27;;;10.53;;
19235;SDS011;9752;54.270;12.470;2023-05-07T03:45:56;17.80;;;10.97;;
19235;SDS011;9752;54.270;12.470;2023-05-07T03:51:00;17.90;;;10.50;;
19235;SDS011;9752;54.270;12.470;2023-05-07T03:56:07;21.60;;;10.90;;
19235;SDS011;9752;54.270;12.470;2023-05-07T04:01:12;23.37;;;12.33;;
19235;SDS011;9752;54.270;12.470;2023-05-07T04:06:15;20.00;;;12.20;;
19235;SDS011;9752;54.270;12.470;2023-05-07T04:11:21;19.10;;;11.03;;
19235;SDS011;9752;54.270;12.470;2023-05-07T04:16:23;20.73;;;12.60;;
19235;SDS011;9752;54.270;12.470;2023-05-07T04:21:25;21.50;;;11.80;;
19235;SDS011;9752;54.270;12.470;2023-05-07T04:26:29;22.43;;;12.30;;
19235;SDS011;9752;54.270;12.470;2023-05-07T04:31:32;18.00;;;11.30;;
19235;SDS011;9752;54.270;12.470;2023-05-07T04:36:33;22.17;;;11.30;;
19235;SDS011;9752;54.270;12.470;2023-05-07T04:41:43;15.80;;;11.37;;
19235;SDS011;9752;54.270;12.470;2023-05-07T04:46:45;16.80;;;10.97;;
19235;SDS011;9752;54.270;12.470;2023-05-07T04:51:47;18.40;;;10.53;;
19235;SDS011;9752;54.270;12.470;2023-05-07T04:56:54;20.67;;;12.93;;
19235;SDS011;9752;54.270;12.470;2023-05-07T05:01:56;24.83;;;11.93;;
19235;SDS011;9752;54.270;12.470;2023-05-07T05:06:59;20.10;;;11.23;;
19235;SDS011;9752;54.270;12.470;2023-05-07T05:12:04;26.20;;;11.27;;
19235;SDS011;9752;54.270;12.470;2023-05-07T05:17:09;26.87;;;11.10;;
19235;SDS011;9752;54.270;12.470;2023-05-07T05:22:11;17.03;;;10.47;;
19235;SDS011;9752;54.270;12.470;2023-05-07T05:27:14;16.83;;;10.70;;
19235;SDS011;9752;54.270;12.470;2023-05-07T05:32:16;17.50;;;10.57;;
19235;SDS011;9752;54.270;12.470;2023-05-07T05:37:19;20.13;;;10.23;;
19235;SDS011;9752;54.270;12.470;2023-05-07T05:42:22;18.83;;;10.50;;
19235;SDS011;9752;54.270;12.470;2023-05-07T05:47:24;15.07;;;10.00;;
19235;SDS011;9752;54.270;12.470;2023-05-07T05:52:28;16.63;;;10.23;;
19235;SDS011;9752;54.270;12.470;2023-05-07T05:57:32;18.20;;;10.67;;
19235;SDS011;9752;54.270;12.470;2023-05-07T06:02:34;18.23;;;9.30;;
19235;SDS011;9752;54.270;12.470;2023-05-07T06:07:38;18.70;;;10.43;;
19235;SDS011;9752;54.270;12.470;2023-05-07T06:12:41;12.40;;;9.13;;
19235;SDS011;9752;54.270;12.470;2023-05-07T06:17:43;15.57;;;10.17;;
19235;SDS011;9752;54.270;12.470;2023-05-07T06:22:45;10.97;;;9.83;;
19235;SDS011;9752;54.270;12.470;2023-05-07T06:27:50;12.40;;;10.47;;
19235;SDS011;9752;54.270;12.470;2023-05-07T06:32:52;12.73;;;10.57;;
19235;SDS011;9752;54.270;12.470;2023-05-07T06:37:54;13.13;;;11.83;;
19235;SDS011;9752;54.270;12.470;2023-05-07T06:43:00;13.13;;;11.83;;
19235;SDS011;9752;54.270;12.470;2023-05-07T06:48:09;13.17;;;12.07;;
19235;SDS011;9752;54.270;12.470;2023-05-07T06:53:21;13.97;;;12.77;;
19235;SDS011;9752;54.270;12.470;2023-05-07T06:58:25;14.07;;;13.07;;
19235;SDS011;9752;54.270;12.470;2023-05-07T07:03:27;14.93;;;13.83;;
19235;SDS011;9752;54.270;12.470;2023-05-07T07:08:30;13.23;;;12.33;;
19235;SDS011;9752;54.270;12.470;2023-05-07T07:13:33;13.83;;;12.93;;
19235;SDS011;9752;54.270;12.470;2023-05-07T07:18:35;13.77;;;12.67;;
19235;SDS011;9752;54.270;12.470;2023-05-07T07:23:38;14.50;;;13.50;;
19235;SDS011;9752;54.270;12.470;2023-05-07T07:28:45;16.23;;;14.50;;
19235;SDS011;9752;54.270;12.470;2023-05-07T07:33:50;15.43;;;14.20;;
19235;SDS011;9752;54.270;12.470;2023-05-07T07:38:53;15.07;;;14.00;;
19235;SDS011;9752;54.270;12.470;2023-05-07T07:43:56;16.37;;;15.43;;
19235;SDS011;9752;54.270;12.470;2023-05-07T07:48:58;16.90;;;15.80;;
19235;SDS011;9752;54.270;12.470;2023-05-07T07:54:00;17.37;;;16.17;;
19235;SDS011;9752;54.270;12.470;2023-05-07T07:59:05;17.53;;;16.33;;
19235;SDS011;9752;54.270;12.470;2023-05-07T08:04:09;18.97;;;17.73;;
19235;SDS011;9752;54.270;12.470;2023-05-07T08:09:14;17.57;;;16.57;;
19235;SDS011;9752;54.270;12.470;2023-05-07T08:14:18;17.77;;;16.67;;
19235;SDS011;9752;54.270;12.470;2023-05-07T08:19:21;18.70;;;17.23;;
19235;SDS011;9752;54.270;12.470;2023-05-07T08:24:24;18.03;;;16.67;;
19235;SDS011;9752;54.270;12.470;2023-05-07T08:29:28;19.13;;;17.63;;
19235;SDS011;9752;54.270;12.470;2023-05-07T08:34:30;19.40;;;18.00;;
19235;SDS011;9752;54.270;12.470;2023-05-07T08:39:35;18.53;;;17.43;;
19235;SDS011;9752;54.270;12.470;2023-05-07T08:44:40;18.30;;;17.00;;
19235;SDS011;9752;54.270;12.470;2023-05-07T08:49:47;17.50;;;16.20;;
19235;SDS011;9752;54.270;12.470;2023-05-07T08:54:50;18.37;;;17.23;;
19235;SDS011;9752;54.270;12.470;2023-05-07T08:59:54;19.07;;;17.77;;
19235;SDS011;9752;54.270;12.470;2023-05-07T09:04:56;19.30;;;18.00;;
19235;SDS011;9752;54.270;12.470;2023-05-07T09:09:57;19.13;;;17.67;;
19235;SDS011;9752;54.270;12.470;2023-05-07T09:15:01;18.93;;;17.63;;
19235;SDS011;9752;54.270;12.470;2023-05-07T09:20:05;18.57;;;17.07;;
19235;SDS011;9752;54.270;12.470;2023-05-07T09:25:08;18.20;;;16.77;;
19235;SDS011;9752;54.270;12.470;2023-05-07T09:30:13;16.23;;;15.23;;
19235;SDS011;9752;54.270;12.470;2023-05-07T09:35:15;17.90;;;16.30;;
19235;SDS011;9752;54.270;12.470;2023-05-07T09:40:21;19.50;;;18.23;;
19235;SDS011;9752;54.270;12.470;2023-05-07T09:45:26;17.93;;;16.93;;
19235;SDS011;9752;54.270;12.470;2023-05-07T09:50:32;19.13;;;17.60;;
19235;SDS011;9752;54.270;12.470;2023-05-07T09:55:37;17.87;;;16.87;;
19235;SDS011;9752;54.270;12.470;2023-05-07T10:00:41;18.67;;;17.57;;
19235;SDS011;9752;54.270;12.470;2023-05-07T10:05:48;17.77;;;16.67;;
19235;SDS011;9752;54.270;12.470;2023-05-07T10:10:53;17.47;;;16.13;;
19235;SDS011;9752;54.270;12.470;2023-05-07T10:15:59;17.33;;;16.30;;
19235;SDS011;9752;54.270;12.470;2023-05-07T10:21:08;18.23;;;16.80;;
19235;SDS011;9752;54.270;12.470;2023-05-07T10:26:12;17.80;;;16.80;;
19235;SDS011;9752;54.270;12.470;2023-05-07T10:31:23;18.73;;;17.53;;
19235;SDS011;9752;54.270;12.470;2023-05-07T10:36:41;19.17;;;17.47;;
19235;SDS011;9752;54.270;12.470;2023-05-07T10:41:44;17.60;;;16.70;;
19235;SDS011;9752;54.270;12.470;2023-05-07T10:46:50;17.73;;;16.17;;
19235;SDS011;9752;54.270;12.470;2023-05-07T10:52:12;17.30;;;16.40;;
19235;SDS011;9752;54.270;12.470;2023-05-07T10:57:34;16.73;;;15.73;;
19235;SDS011;9752;54.270;12.470;2023-05-07T11:08:22;17.63;;;16.63;;
19235;SDS011;9752;54.270;12.470;2023-05-07T11:13:43;17.30;;;16.30;;
19235;SDS011;9752;54.270;12.470;2023-05-07T11:18:56;17.00;;;16.10;;
19235;SDS011;9752;54.270;12.470;2023-05-07T11:24:06;17.40;;;15.97;;
19235;SDS011;9752;54.270;12.470;2023-05-07T11:29:24;17.57;;;16.30;;
19235;SDS011;9752;54.270;12.470;2023-05-07T11:34:34;17.40;;;16.47;;
19235;SDS011;9752;54.270;12.470;2023-05-07T11:39:36;17.83;;;16.83;;
19235;SDS011;9752;54.270;12.470;2023-05-07T11:44:42;18.83;;;17.67;;
19235;SDS011;9752;54.270;12.470;2023-05-07T11:49:47;18.03;;;16.93;;
19235;SDS011;9752;54.270;12.470;2023-05-07T11:54:49;18.93;;;17.63;;
19235;SDS011;9752;54.270;12.470;2023-05-07T11:59:52;17.30;;;15.60;;
19235;SDS011;9752;54.270;12.470;2023-05-07T12:04:55;18.13;;;16.73;;
19235;SDS011;9752;54.270;12.470;2023-05-07T12:09:57;18.00;;;16.60;;
19235;SDS011;9752;54.270;12.470;2023-05-07T12:14:59;18.10;;;16.90;;
19235;SDS011;9752;54.270;12.470;2023-05-07T12:20:02;18.03;;;16.83;;
19235;SDS011;9752;54.270;12.470;2023-05-07T12:25:05;18.23;;;17.13;;
19235;SDS011;9752;54.270;12.470;2023-05-07T12:30:09;19.53;;;18.20;;
19235;SDS011;9752;54.270;12.470;2023-05-07T12:35:14;20.80;;;19.40;;
19235;SDS011;9752;54.270;12.470;2023-05-07T12:40:15;17.33;;;16.33;;
19235;SDS011;9752;54.270;12.470;2023-05-07T12:45:17;18.93;;;17.70;;
19235;SDS011;9752;54.270;12.470;2023-05-07T12:50:20;17.93;;;16.87;;
19235;SDS011;9752;54.270;12.470;2023-05-07T12:55:22;17.87;;;16.70;;
19235;SDS011;9752;54.270;12.470;2023-05-07T13:00:33;18.10;;;16.73;;
19235;SDS011;9752;54.270;12.470;2023-05-07T13:05:37;17.87;;;16.57;;
19235;SDS011;9752;54.270;12.470;2023-05-07T13:10:40;18.03;;;17.00;;
19235;SDS011;9752;54.270;12.470;2023-05-07T13:15:42;18.03;;;16.87;;
19235;SDS011;9752;54.270;12.470;2023-05-07T13:20:45;18.23;;;17.20;;
19235;SDS011;9752;54.270;12.470;2023-05-07T13:25:47;17.47;;;16.40;;
19235;SDS011;9752;54.270;12.470;2023-05-07T13:30:50;16.70;;;15.80;;
19235;SDS011;9752;54.270;12.470;2023-05-07T13:35:54;17.43;;;16.27;;
19235;SDS011;9752;54.270;12.470;2023-05-07T13:40:57;17.40;;;16.30;;
19235;SDS011;9752;54.270;12.470;2023-05-07T13:45:59;18.00;;;16.80;;
19235;SDS011;9752;54.270;12.470;2023-05-07T13:51:02;17.57;;;16.47;;
19235;SDS011;9752;54.270;12.470;2023-05-07T13:56:04;18.87;;;17.20;;
19235;SDS011;9752;54.270;12.470;2023-05-07T14:01:06;17.50;;;16.43;;
19235;SDS011;9752;54.270;12.470;2023-05-07T14:06:09;17.07;;;16.00;;
19235;SDS011;9752;54.270;12.470;2023-05-07T14:11:11;17.73;;;16.63;;
19235;SDS011;9752;54.270;12.470;2023-05-07T14:16:13;17.10;;;16.00;;
19235;SDS011;9752;54.270;12.470;2023-05-07T14:21:16;16.63;;;15.77;;
19235;SDS011;9752;54.270;12.470;2023-05-07T14:26:18;17.20;;;16.10;;
19235;SDS011;9752;54.270;12.470;2023-05-07T14:31:20;17.03;;;16.13;;
19235;SDS011;9752;54.270;12.470;2023-05-07T14:36:23;18.40;;;17.00;;
19235;SDS011;9752;54.270;12.470;2023-05-07T14:41:26;18.67;;;17.20;;
19235;SDS011;9752;54.270;12.470;2023-05-07T14:46:27;17.63;;;16.53;;
19235;SDS011;9752;54.270;12.470;2023-05-07T14:51:30;17.13;;;16.07;;
19235;SDS011;9752;54.270;12.470;2023-05-07T14:56:33;17.60;;;16.60;;
19235;SDS011;9752;54.270;12.470;2023-05-07T15:01:36;18.73;;;17.73;;
19235;SDS011;9752;54.270;12.470;2023-05-07T15:06:39;19.00;;;17.67;;
19235;SDS011;9752;54.270;12.470;2023-05-07T15:11:41;18.97;;;17.60;;
19235;SDS011;9752;54.270;12.470;2023-05-07T15:16:43;17.77;;;16.87;;
19235;SDS011;9752;54.270;12.470;2023-05-07T15:21:47;18.33;;;17.13;;
19235;SDS011;9752;54.270;12.470;2023-05-07T15:26:48;18.10;;;16.83;;
19235;SDS011;9752;54.270;12.470;2023-05-07T15:31:50;18.10;;;17.10;;
19235;SDS011;9752;54.270;12.470;2023-05-07T15:36:54;17.17;;;16.33;;
19235;SDS011;9752;54.270;12.470;2023-05-07T15:41:56;17.27;;;16.37;;
19235;SDS011;9752;54.270;12.470;2023-05-07T15:46:58;17.90;;;16.90;;
19235;SDS011;9752;54.270;12.470;2023-05-07T15:52:02;17.50;;;16.50;;
19235;SDS011;9752;54.270;12.470;2023-05-07T15:57:03;17.20;;;16.23;;
19235;SDS011;9752;54.270;12.470;2023-05-07T16:02:06;17.27;;;16.37;;
19235;SDS011;9752;54.270;12.470;2023-05-07T16:07:09;18.00;;;16.90;;
19235;SDS011;9752;54.270;12.470;2023-05-07T16:12:11;16.77;;;15.77;;
19235;SDS011;9752;54.270;12.470;2023-05-07T16:17:13;17.00;;;16.10;;
19235;SDS011;9752;54.270;12.470;2023-05-07T16:22:16;16.53;;;15.53;;
19235;SDS011;9752;54.270;12.470;2023-05-07T16:27:18;16.80;;;15.57;;
19235;SDS011;9752;54.270;12.470;2023-05-07T16:32:20;17.23;;;16.20;;
19235;SDS011;9752;54.270;12.470;2023-05-07T16:37:23;17.03;;;16.03;;
19235;SDS011;9752;54.270;12.470;2023-05-07T16:42:24;16.77;;;15.87;;
19235;SDS011;9752;54.270;12.470;2023-05-07T16:47:26;17.47;;;16.57;;
19235;SDS011;9752;54.270;12.470;2023-05-07T16:52:30;17.20;;;16.00;;
19235;SDS011;9752;54.270;12.470;2023-05-07T16:57:31;15.97;;;15.07;;
19235;SDS011;9752;54.270;12.470;2023-05-07T17:02:33;16.80;;;15.70;;
19235;SDS011;9752;54.270;12.470;2023-05-07T17:07:36;15.57;;;14.83;;
19235;SDS011;9752;54.270;12.470;2023-05-07T17:12:38;15.77;;;14.57;;
19235;SDS011;9752;54.270;12.470;2023-05-07T17:17:40;17.03;;;15.80;;
19235;SDS011;9752;54.270;12.470;2023-05-07T17:22:43;16.03;;;15.03;;
19235;SDS011;9752;54.270;12.470;2023-05-07T17:27:45;15.30;;;14.50;;
19235;SDS011;9752;54.270;12.470;2023-05-07T17:32:46;15.47;;;14.73;;
19235;SDS011;9752;54.270;12.470;2023-05-07T17:37:50;16.30;;;15.10;;
19235;SDS011;9752;54.270;12.470;2023-05-07T17:42:53;15.20;;;14.30;;
19235;SDS011;9752;54.270;12.470;2023-05-07T17:47:55;16.10;;;15.17;;
19235;SDS011;9752;54.270;12.470;2023-05-07T17:52:58;15.97;;;14.97;;
19235;SDS011;9752;54.270;12.470;2023-05-07T17:58:01;16.67;;;15.50;;
19235;SDS011;9752;54.270;12.470;2023-05-07T18:03:03;16.33;;;15.23;;
19235;SDS011;9752;54.270;12.470;2023-05-07T18:08:06;17.53;;;16.50;;
19235;SDS011;9752;54.270;12.470;2023-05-07T18:13:08;16.97;;;16.07;;
19235;SDS011;9752;54.270;12.470;2023-05-07T18:18:10;16.50;;;15.20;;
19235;SDS011;9752;54.270;12.470;2023-05-07T18:23:13;15.90;;;15.00;;
19235;SDS011;9752;54.270;12.470;2023-05-07T18:28:15;17.00;;;15.90;;
19235;SDS011;9752;54.270;12.470;2023-05-07T18:33:16;15.63;;;14.67;;
19235;SDS011;9752;54.270;12.470;2023-05-07T18:38:20;16.27;;;15.10;;
19235;SDS011;9752;54.270;12.470;2023-05-07T18:43:21;16.63;;;15.50;;
19235;SDS011;9752;54.270;12.470;2023-05-07T18:48:23;15.07;;;14.10;;
19235;SDS011;9752;54.270;12.470;2023-05-07T18:53:26;15.90;;;14.93;;
19235;SDS011;9752;54.270;12.470;2023-05-07T18:58:28;17.93;;;16.67;;
19235;SDS011;9752;54.270;12.470;2023-05-07T19:03:30;16.83;;;15.60;;
19235;SDS011;9752;54.270;12.470;2023-05-07T19:08:33;17.77;;;16.67;;
19235;SDS011;9752;54.270;12.470;2023-05-07T19:13:35;17.73;;;16.63;;
19235;SDS011;9752;54.270;12.470;2023-05-07T19:18:36;17.53;;;16.63;;
19235;SDS011;9752;54.270;12.470;2023-05-07T19:23:39;17.63;;;16.23;;
19235;SDS011;9752;54.270;12.470;2023-05-07T19:28:41;17.60;;;16.30;;
19235;SDS011;9752;54.270;12.470;2023-05-07T19:33:43;16.87;;;15.77;;
19235;SDS011;9752;54.270;12.470;2023-05-07T19:38:46;16.50;;;15.00;;
19235;SDS011;9752;54.270;12.470;2023-05-07T19:43:49;16.90;;;15.47;;
19235;SDS011;9752;54.270;12.470;2023-05-07T19:48:51;16.10;;;14.80;;
19235;SDS011;9752;54.270;12.470;2023-05-07T19:53:54;15.20;;;13.90;;
19235;SDS011;9752;54.270;12.470;2023-05-07T19:58:56;15.47;;;14.07;;
19235;SDS011;9752;54.270;12.470;2023-05-07T20:03:58;14.10;;;13.00;;
19235;SDS011;9752;54.270;12.470;2023-05-07T20:09:01;13.60;;;12.47;;
19235;SDS011;9752;54.270;12.470;2023-05-07T20:14:03;13.00;;;12.03;;
19235;SDS011;9752;54.270;12.470;2023-05-07T20:19:04;13.97;;;12.53;;
19235;SDS011;9752;54.270;12.470;2023-05-07T20:24:08;13.20;;;12.10;;
19235;SDS011;9752;54.270;12.470;2023-05-07T20:29:09;12.07;;;11.17;;
19235;SDS011;9752;54.270;12.470;2023-05-07T20:34:11;13.27;;;12.13;;
19235;SDS011;9752;54.270;12.470;2023-05-07T20:39:14;12.67;;;11.77;;
19235;SDS011;9752;54.270;12.470;2023-05-07T20:44:16;12.80;;;11.53;;
19235;SDS011;9752;54.270;12.470;2023-05-07T20:49:18;11.83;;;10.83;;
19235;SDS011;9752;54.270;12.470;2023-05-07T20:54:21;12.07;;;11.07;;
19235;SDS011;9752;54.270;12.470;2023-05-07T20:59:24;12.70;;;11.57;;
19235;SDS011;9752;54.270;12.470;2023-05-07T21:04:25;13.17;;;12.07;;
19235;SDS011;9752;54.270;12.470;2023-05-07T21:09:28;13.17;;;11.10;;
19235;SDS011;9752;54.270;12.470;2023-05-07T21:14:30;12.20;;;11.10;;
19235;SDS011;9752;54.270;12.470;2023-05-07T21:19:32;12.10;;;11.00;;
19235;SDS011;9752;54.270;12.470;2023-05-07T21:24:35;11.50;;;10.37;;
19235;SDS011;9752;54.270;12.470;2023-05-07T21:29:37;13.07;;;10.93;;
19235;SDS011;9752;54.270;12.470;2023-05-07T21:34:38;15.60;;;10.23;;
19235;SDS011;9752;54.270;12.470;2023-05-07T21:39:41;11.70;;;10.60;;
19235;SDS011;9752;54.270;12.470;2023-05-07T21:44:44;12.00;;;10.63;;
19235;SDS011;9752;54.270;12.470;2023-05-07T21:49:45;19.70;;;10.77;;
19235;SDS011;9752;54.270;12.470;2023-05-07T21:54:50;11.83;;;10.43;;
19235;SDS011;9752;54.270;12.470;2023-05-07T21:59:52;10.30;;;9.30;;
19235;SDS011;9752;54.270;12.470;2023-05-07T22:04:53;10.80;;;9.80;;
19235;SDS011;9752;54.270;12.470;2023-05-07T22:09:57;10.87;;;9.30;;
19235;SDS011;9752;54.270;12.470;2023-05-07T22:14:58;10.97;;;9.73;;
19235;SDS011;9752;54.270;12.470;2023-05-07T22:20:00;10.33;;;9.33;;
19235;SDS011;9752;54.270;12.470;2023-05-07T22:25:04;12.97;;;10.10;;
19235;SDS011;9752;54.270;12.470;2023-05-07T22:30:06;12.33;;;9.83;;
19235;SDS011;9752;54.270;12.470;2023-05-07T22:35:09;10.93;;;9.83;;
19235;SDS011;9752;54.270;12.470;2023-05-07T22:40:12;11.00;;;9.37;;
19235;SDS011;9752;54.270;12.470;2023-05-07T22:45:14;11.80;;;9.97;;
19235;SDS011;9752;54.270;12.470;2023-05-07T22:50:16;12.20;;;9.73;;
19235;SDS011;9752;54.270;12.470;2023-05-07T22:55:19;13.03;;;9.83;;
19235;SDS011;9752;54.270;12.470;2023-05-07T23:00:21;12.67;;;9.63;;
19235;SDS011;9752;54.270;12.470;2023-05-07T23:05:23;11.20;;;10.10;;
19235;SDS011;9752;54.270;12.470;2023-05-07T23:10:26;10.80;;;9.73;;
19235;SDS011;9752;54.270;12.470;2023-05-07T23:15:28;10.97;;;9.80;;
19235;SDS011;9752;54.270;12.470;2023-05-07T23:20:31;14.23;;;9.87;;
19235;SDS011;9752;54.270;12.470;2023-05-07T23:25:34;13.43;;;9.83;;
19235;SDS011;9752;54.270;12.470;2023-05-07T23:30:35;14.23;;;11.77;;
19235;SDS011;9752;54.270;12.470;2023-05-07T23:35:37;12.23;;;9.83;;
19235;SDS011;9752;54.270;12.470;2023-05-07T23:40:40;14.27;;;10.47;;
19235;SDS011;9752;54.270;12.470;2023-05-07T23:45:42;14.60;;;10.97;;
19235;SDS011;9752;54.270;12.470;2023-05-07T23:50:44;14.57;;;11.53;;
19235;SDS011;9752;54.270;12.470;2023-05-07T23:55:47;12.07;;;10.33;;
